Time;durP1;ratioP1;P1;durP2;ratioP2;P2;SDS_P1;SDS_P2;PMS_P1;PMS_P2;Temp;Humidity;BMP_temperature;BMP_pressure;BME280_temperature;BME280_humidity;BME280_pressure;Samples;Min_cycle;Max_cycle;Signal;HPM_P1;HPM_P2
2023/03/06 00:02:06;;;;;;;7.45;5.07;;;;;;;5.71;54.93;99394.03;10431931;28;20167;-72
2023/03/06 00:07:08;;;;;;;6.57;5.55;;;;;;;5.68;55.15;99397.75;10413382;28;20053;-68
2023/03/06 00:12:09;;;;;;;6.82;5.15;;;;;;;5.51;55.27;99391.06;10433978;28;20676;-67
2023/03/06 00:17:10;;;;;;;6.63;5.80;;;;;;;5.64;55.33;99391.84;10419830;28;20056;-68
2023/03/06 00:22:13;;;;;;;6.07;4.90;;;;;;;5.63;55.43;99378.75;10410408;28;20149;-69
2023/03/06 00:27:15;;;;;;;8.23;5.40;;;;;;;5.72;55.51;99393.94;10430717;28;20190;-70
2023/03/06 00:32:16;;;;;;;6.88;5.28;;;;;;;5.71;55.35;99370.28;10428625;28;20049;-68
2023/03/06 00:37:19;;;;;;;6.82;4.97;;;;;;;5.82;55.31;99372.94;10429011;28;20064;-68
2023/03/06 00:42:20;;;;;;;6.75;4.97;;;;;;;5.75;55.13;99348.81;10429631;28;20423;-67
2023/03/06 00:47:21;;;;;;;7.05;5.25;;;;;;;5.77;55.42;99353.97;10428944;28;20074;-68
2023/03/06 00:52:23;;;;;;;7.72;5.30;;;;;;;5.75;55.23;99334.75;10429714;28;20056;-68
2023/03/06 00:57:24;;;;;;;6.10;5.50;;;;;;;5.75;55.24;99332.09;10423840;28;20544;-68
2023/03/06 01:02:26;;;;;;;7.35;5.13;;;;;;;5.74;55.18;99327.78;10430865;28;20082;-67
2023/03/06 01:07:28;;;;;;;8.25;6.13;;;;;;;5.76;55.67;99320.59;10426842;28;20048;-68
2023/03/06 01:12:30;;;;;;;6.93;5.50;;;;;;;5.71;55.76;99309.53;10429434;28;20634;-68
2023/03/06 01:17:31;;;;;;;5.63;4.45;;;;;;;5.74;55.63;99304.03;10430015;28;20703;-69
2023/03/06 01:22:32;;;;;;;5.75;4.65;;;;;;;5.66;55.85;99294.88;10427817;28;20049;-67
2023/03/06 01:27:34;;;;;;;5.20;4.70;;;;;;;5.84;55.52;99297.94;10434818;28;20672;-68
2023/03/06 01:32:36;;;;;;;6.93;4.90;;;;;;;5.86;55.39;99292.53;10436553;28;20285;-68
2023/03/06 01:37:38;;;;;;;6.25;5.30;;;;;;;5.87;55.68;99296.00;10439977;28;20055;-68
2023/03/06 01:42:40;;;;;;;7.45;4.88;;;;;;;5.70;55.63;99282.28;10438863;28;20431;-67
2023/03/06 01:47:43;;;;;;;8.05;4.82;;;;;;;5.59;55.71;99277.81;10438297;28;20217;-67
2023/03/06 01:52:52;;;;;;;5.90;4.47;;;;;;;5.65;56.07;99279.97;10439931;28;20044;-66
2023/03/06 01:57:56;;;;;;;6.00;4.82;;;;;;;5.52;56.39;99250.19;10436352;28;20154;-70
2023/03/06 02:03:00;;;;;;;5.25;4.75;;;;;;;5.74;55.89;99277.63;10439360;28;21669;-67
2023/03/06 02:08:04;;;;;;;5.10;4.30;;;;;;;5.62;56.23;99269.66;10441319;28;20679;-69
2023/03/06 02:13:05;;;;;;;5.20;4.40;;;;;;;5.62;56.83;99245.06;10438270;28;20054;-69
2023/03/06 02:18:07;;;;;;;5.70;4.57;;;;;;;5.73;56.85;99250.34;10435598;28;20472;-71
2023/03/06 02:23:21;;;;;;;6.47;4.57;;;;;;;5.75;57.27;99255.50;10436306;28;20067;-67
2023/03/06 02:28:23;;;;;;;6.53;4.70;;;;;;;5.69;59.22;99255.97;10437638;28;20045;-67
2023/03/06 02:33:28;;;;;;;5.85;5.18;;;;;;;5.57;58.80;99250.69;10436103;28;20062;-70
2023/03/06 02:38:39;;;;;;;6.93;5.50;;;;;;;5.49;58.29;99221.38;10435228;28;20053;-70
2023/03/06 02:43:44;;;;;;;5.90;5.03;;;;;;;5.63;58.16;99237.03;10434579;28;20044;-69
2023/03/06 02:48:45;;;;;;;8.82;5.68;;;;;;;5.55;58.73;99230.66;10451272;28;20131;-69
2023/03/06 02:53:46;;;;;;;5.90;4.97;;;;;;;5.58;58.72;99222.50;10445366;28;20400;-67
2023/03/06 02:58:48;;;;;;;6.10;4.88;;;;;;;5.40;58.84;99215.00;10427483;28;20044;-69
2023/03/06 03:03:49;;;;;;;8.90;6.40;;;;;;;5.23;59.28;99197.81;10433171;28;20522;-69
2023/03/06 03:08:51;;;;;;;6.50;5.30;;;;;;;5.34;59.17;99214.63;10431796;28;20185;-66
2023/03/06 03:13:52;;;;;;;6.60;5.22;;;;;;;5.34;59.13;99209.34;10409543;28;20522;-69
2023/03/06 03:18:53;;;;;;;6.40;5.50;;;;;;;5.32;59.19;99214.75;10430690;28;20393;-67
2023/03/06 03:23:55;;;;;;;6.72;5.85;;;;;;;5.31;59.31;99210.41;10430315;28;21059;-68
2023/03/06 03:28:56;;;;;;;6.00;5.40;;;;;;;5.27;59.34;99215.09;10429617;28;20491;-67
2023/03/06 03:33:58;;;;;;;6.82;5.35;;;;;;;5.23;60.11;99211.00;10431941;28;20054;-66
2023/03/06 03:39:00;;;;;;;6.88;5.60;;;;;;;5.28;60.54;99205.38;10444541;28;20076;-69
2023/03/06 03:44:01;;;;;;;7.15;6.40;;;;;;;5.21;60.98;99193.59;10432632;28;20102;-70
2023/03/06 03:49:04;;;;;;;6.47;5.63;;;;;;;5.08;61.39;99180.50;10431072;28;20045;-68
2023/03/06 03:54:05;;;;;;;7.75;6.55;;;;;;;5.09;61.68;99200.66;10434552;28;20193;-69
2023/03/06 03:59:07;;;;;;;5.60;4.97;;;;;;;5.11;61.46;99177.63;10414877;28;20467;-68
2023/03/06 04:04:08;;;;;;;5.95;5.35;;;;;;;5.25;61.14;99182.69;10433078;28;20075;-68
2023/03/06 04:09:10;;;;;;;8.32;5.93;;;;;;;5.31;60.84;99173.47;10427758;28;20049;-68
2023/03/06 04:14:11;;;;;;;6.65;5.45;;;;;;;5.30;60.90;99172.66;10410652;28;20067;-68
2023/03/06 04:19:13;;;;;;;7.28;5.93;;;;;;;5.44;61.10;99173.41;10432710;28;20071;-68
2023/03/06 04:24:17;;;;;;;6.80;5.60;;;;;;;5.40;60.80;99156.09;10430530;28;20193;-69
2023/03/06 04:29:20;;;;;;;6.63;5.22;;;;;;;5.39;61.16;99149.13;10415239;28;20056;-69
2023/03/06 04:34:21;;;;;;;6.60;5.45;;;;;;;5.38;61.62;99140.38;10432103;28;20163;-69
2023/03/06 04:39:23;;;;;;;7.22;5.43;;;;;;;5.40;61.16;99140.28;10432567;28;20549;-68
2023/03/06 04:44:24;;;;;;;6.05;5.53;;;;;;;5.48;60.86;99151.09;10428741;28;20237;-67
2023/03/06 04:49:26;;;;;;;6.20;5.10;;;;;;;5.46;60.58;99147.72;10430183;28;20044;-69
2023/03/06 04:54:27;;;;;;;9.15;5.95;;;;;;;5.37;60.80;99138.69;10429955;28;20048;-70
2023/03/06 04:59:29;;;;;;;7.32;5.90;;;;;;;5.41;60.99;99136.69;10427810;28;20059;-70
2023/03/06 05:04:30;;;;;;;6.18;5.57;;;;;;;5.27;61.38;99130.66;10425722;28;20687;-68
2023/03/06 05:09:33;;;;;;;7.43;5.95;;;;;;;5.32;61.47;99120.56;10429631;28;20048;-68
2023/03/06 05:14:34;;;;;;;7.70;5.63;;;;;;;5.38;61.69;99121.09;10428400;28;20659;-68
2023/03/06 05:19:36;;;;;;;8.20;6.25;;;;;;;5.52;61.55;99127.94;10411441;28;20060;-69
2023/03/06 05:24:37;;;;;;;7.68;6.55;;;;;;;5.25;62.19;99090.34;10429831;28;20568;-68
2023/03/06 05:29:38;;;;;;;8.32;6.40;;;;;;;5.46;62.68;99126.59;10409850;28;20801;-69
2023/03/06 05:34:40;;;;;;;9.15;6.78;;;;;;;5.43;62.95;99130.31;10409789;28;20051;-68
2023/03/06 05:39:41;;;;;;;8.18;7.13;;;;;;;5.33;63.13;99126.72;10431192;28;20083;-67
2023/03/06 05:44:43;;;;;;;8.25;7.05;;;;;;;5.32;62.79;99120.56;10428271;28;20497;-68
2023/03/06 05:49:44;;;;;;;7.68;5.90;;;;;;;5.36;62.58;99109.78;10429908;28;20518;-67
2023/03/06 05:54:48;;;;;;;7.43;6.28;;;;;;;5.34;62.77;99124.91;10432280;28;20048;-68
2023/03/06 05:59:50;;;;;;;7.40;5.40;;;;;;;5.19;62.97;99111.91;10427326;28;20395;-70
2023/03/06 06:04:51;;;;;;;7.70;6.00;;;;;;;5.27;63.27;99120.09;10415125;28;20111;-73
2023/03/06 06:09:53;;;;;;;7.40;5.65;;;;;;;5.33;63.14;99118.81;10439718;28;20044;-68
2023/03/06 06:14:54;;;;;;;9.13;5.65;;;;;;;5.34;62.82;99114.34;10433240;28;20131;-68
2023/03/06 06:19:56;;;;;;;6.93;5.22;;;;;;;5.37;63.11;99117.59;10431148;28;20083;-68
2023/03/06 06:24:57;;;;;;;7.47;5.30;;;;;;;5.30;63.18;99109.31;10432095;28;20044;-66
2023/03/06 06:29:59;;;;;;;7.30;6.35;;;;;;;5.50;62.87;99125.41;10432930;28;20052;-67
2023/03/06 06:35:00;;;;;;;7.95;6.15;;;;;;;5.40;62.72;99103.31;10436732;28;20036;-68
2023/03/06 06:40:03;;;;;;;8.40;6.88;;;;;;;5.44;62.90;99116.16;10438224;28;20068;-67
2023/03/06 06:45:05;;;;;;;10.27;6.38;;;;;;;5.40;63.01;99105.97;10436754;28;20054;-69
2023/03/06 06:50:11;;;;;;;8.63;6.93;;;;;;;5.49;62.95;99129.84;10434178;28;20056;-67
2023/03/06 06:55:13;;;;;;;7.68;6.65;;;;;;;5.40;63.00;99119.97;10434764;28;20458;-67
2023/03/06 07:00:16;;;;;;;10.00;6.47;;;;;;;5.35;63.31;99111.59;10433779;28;20048;-68
2023/03/06 07:05:18;;;;;;;8.38;6.90;;;;;;;5.45;63.21;99122.25;10420908;28;20059;-70
2023/03/06 07:10:22;;;;;;;7.03;6.10;;;;;;;5.43;63.16;99130.31;10436889;28;20048;-66
2023/03/06 07:15:25;;;;;;;7.40;5.70;;;;;;;5.52;62.77;99122.66;10432256;28;20056;-68
2023/03/06 07:20:27;;;;;;;10.38;8.70;;;;;;;5.65;62.85;99126.03;10433592;28;20165;-68
2023/03/06 07:25:29;;;;;;;10.38;8.85;;;;;;;5.75;62.24;99134.03;10411922;28;20060;-70
2023/03/06 07:30:30;;;;;;;8.27;7.45;;;;;;;5.77;62.61;99138.25;10426979;28;20135;-69
2023/03/06 07:35:32;;;;;;;11.05;7.45;;;;;;;5.77;62.21;99130.34;10431579;28;20068;-68
2023/03/06 07:40:34;;;;;;;10.13;7.78;;;;;;;5.93;62.18;99132.63;10435199;28;20457;-67
2023/03/06 07:45:35;;;;;;;10.98;8.27;;;;;;;5.98;61.64;99134.94;10441766;28;20049;-73
2023/03/06 07:50:37;;;;;;;9.63;7.32;;;;;;;5.73;61.53;99077.88;10427916;28;20060;-73
2023/03/06 07:55:40;;;;;;;9.43;7.55;;;;;;;5.86;61.35;99105.00;10444274;28;20290;-72
2023/03/06 08:00:41;;;;;;;8.88;7.22;;;;;;;5.92;60.87;99090.47;10447549;28;20052;-73
2023/03/06 08:05:43;;;;;;;10.98;7.97;;;;;;;6.02;60.73;99104.66;10441363;28;20056;-72
2023/03/06 08:10:47;;;;;;;9.68;8.68;;;;;;;6.27;59.46;99137.88;10433469;28;20055;-68
2023/03/06 08:15:49;;;;;;;10.45;8.70;;;;;;;6.27;59.56;99137.03;10428857;28;20079;-70
2023/03/06 08:21:00;;;;;;;12.35;8.18;;;;;;;6.03;58.88;99116.06;10432004;28;20163;-72
2023/03/06 08:26:05;;;;;;;11.77;8.48;;;;;;;6.30;58.86;99140.25;10437621;28;20044;-69
2023/03/06 08:31:11;;;;;;;;;;;;;;;6.54;57.70;99158.63;10461722;28;20260;-76
2023/03/06 08:36:13;;;;;;;11.55;8.70;;;;;;;6.54;57.62;99133.97;10470242;28;19924;-75
2023/03/06 08:41:14;;;;;;;9.75;7.80;;;;;;;6.67;57.04;99153.16;10424589;28;20063;-68
2023/03/06 08:46:17;;;;;;;9.90;8.15;;;;;;;6.50;57.51;99148.38;10430626;28;20056;-71
2023/03/06 08:51:20;;;;;;;9.95;8.65;;;;;;;6.70;57.51;99147.59;10429928;28;20139;-67
2023/03/06 08:56:33;;;;;;;9.18;7.72;;;;;;;6.79;56.70;99171.63;10415251;28;20052;-69
2023/03/06 09:01:36;;;;;;;9.57;7.45;;;;;;;6.60;56.06;99141.38;10416214;28;20633;-72
2023/03/06 09:06:40;;;;;;;9.50;8.25;;;;;;;6.73;56.22;99165.03;10433490;28;21434;-72
2023/03/06 09:11:42;;;;;;;9.70;8.70;;;;;;;6.60;56.77;99143.19;10412357;28;20106;-69
2023/03/06 09:16:43;;;;;;;11.02;8.80;;;;;;;6.75;56.98;99164.91;10427252;28;20060;-71
2023/03/06 09:21:44;;;;;;;9.35;8.35;;;;;;;6.72;57.69;99161.56;10415991;28;20060;-71
2023/03/06 09:26:46;;;;;;;11.20;10.00;;;;;;;6.65;57.53;99160.38;10415420;28;20052;-69
2023/03/06 09:31:50;;;;;;;12.73;8.88;;;;;;;6.57;58.48;99176.00;10429279;28;20048;-67
2023/03/06 09:36:52;;;;;;;8.90;7.93;;;;;;;6.45;58.13;99175.19;10428383;28;20036;-67
2023/03/06 09:41:58;;;;;;;11.52;8.85;;;;;;;6.45;58.09;99172.56;10431696;28;20459;-69
2023/03/06 09:47:30;;;;;;;11.70;10.30;;;;;;;6.12;59.18;99137.28;10429086;28;20510;-68
2023/03/06 09:52:35;;;;;;;9.95;8.85;;;;;;;6.45;59.23;99177.00;10438908;28;20442;-66
2023/03/06 09:57:51;;;;;;;10.43;9.32;;;;;;;6.54;59.28;99184.19;10439295;28;20070;-67
2023/03/06 10:03:03;;;;;;;11.88;9.18;;;;;;;6.71;60.08;99165.16;10440366;28;21006;-67
2023/03/06 10:08:19;;;;;;;9.68;8.70;;;;;;;6.17;59.78;99134.28;10435138;28;20475;-67
2023/03/06 10:13:35;;;;;;;10.63;9.35;;;;;;;6.46;59.83;99181.34;10421239;28;20044;-69
2023/03/06 10:18:37;;;;;;;10.07;8.65;;;;;;;6.06;59.39;99142.25;10422805;28;20045;-68
2023/03/06 10:23:50;;;;;;;11.70;8.43;;;;;;;6.65;58.11;99173.59;10419776;28;20048;-67
2023/03/06 10:29:19;;;;;;;9.45;8.45;;;;;;;7.03;56.61;99179.34;10437008;28;20040;-67
2023/03/06 10:34:22;;;;;;;11.70;9.50;;;;;;;7.66;56.22;99171.41;10438804;28;21308;-73
2023/03/06 10:39:24;;;;;;;10.02;8.85;;;;;;;8.13;54.01;99147.03;10447625;28;20052;-75
2023/03/06 10:44:25;;;;;;;9.05;8.15;;;;;;;8.49;53.26;99142.97;10440483;28;20155;-71
2023/03/06 10:49:27;;;;;;;9.93;8.93;;;;;;;8.97;50.56;99140.50;10436366;28;20056;-74
2023/03/06 10:54:32;;;;;;;409.77;69.00;;;;;;;9.84;48.56;99134.13;10433315;28;20067;-72
2023/03/06 10:59:49;;;;;;;12.25;10.73;;;;;;;11.29;44.72;99137.81;10435490;28;20518;-70
2023/03/06 11:04:52;;;;;;;12.85;11.48;;;;;;;14.47;37.74;99139.31;10415645;28;20054;-71
2023/03/06 11:09:57;;;;;;;10.18;8.75;;;;;;;13.85;38.59;99142.72;10434494;28;20076;-67
2023/03/06 11:15:11;;;;;;;;;;;;;;;17.26;31.77;99123.84;10441181;28;20059;-70
2023/03/06 11:20:36;;;;;;;8.93;8.10;;;;;;;20.47;27.02;99129.81;10431962;28;20137;-71
2023/03/06 11:26:19;;;;;;;9.35;8.50;;;;;;;17.05;32.01;99134.59;10422518;28;20636;-71
2023/03/06 11:31:24;;;;;;;9.18;8.18;;;;;;;14.64;35.49;99134.72;10439803;28;20695;-69
2023/03/06 11:36:41;;;;;;;8.55;7.75;;;;;;;14.57;35.50;99132.88;10427398;28;20071;-76
2023/03/06 11:42:14;;;;;;;10.13;8.70;;;;;;;13.50;36.62;99128.78;10435606;28;20743;-69
2023/03/06 11:47:21;;;;;;;8.68;7.78;;;;;;;12.66;38.16;99123.59;10437112;28;20440;-67
2023/03/06 11:52:29;;;;;;;9.30;8.40;;;;;;;12.21;39.65;99108.81;10431674;28;20158;-66
2023/03/06 11:57:41;;;;;;;9.48;7.55;;;;;;;17.28;31.38;99094.88;10429283;28;20106;-66
2023/03/06 12:03:11;;;;;;;7.70;6.97;;;;;;;16.14;31.44;99092.06;10426813;28;20048;-67
2023/03/06 12:08:25;;;;;;;7.32;6.70;;;;;;;17.01;30.09;99076.88;10427183;28;20051;-66
2023/03/06 12:13:48;;;;;;;6.85;6.15;;;;;;;13.92;33.19;99087.53;10412945;28;20117;-65
2023/03/06 12:19:22;;;;;;;6.93;5.90;;;;;;;12.19;35.25;99084.13;10432491;28;20181;-63
2023/03/06 12:24:44;;;;;;;9.38;6.25;;;;;;;13.46;33.88;99070.50;10362072;28;20165;-64
2023/03/06 12:30:20;;;;;;;7.63;6.93;;;;;;;11.61;36.73;99069.72;10434793;28;20044;-66
2023/03/06 12:35:46;;;;;;;7.75;7.00;;;;;;;10.63;38.96;99060.06;10430378;28;20112;-66
2023/03/06 12:41:25;;;;;;;7.90;7.10;;;;;;;10.53;40.26;99080.59;10415596;28;20052;-70
2023/03/06 12:46:29;;;;;;;7.88;6.63;;;;;;;14.07;34.55;99066.25;10416944;28;20055;-67
2023/03/06 12:51:32;;;;;;;8.13;7.32;;;;;;;13.00;35.94;99047.84;10431623;28;20625;-71
2023/03/06 12:56:34;;;;;;;7.63;5.65;;;;;;;11.84;35.94;99053.97;10436422;28;20057;-71
2023/03/06 13:01:54;;;;;;;7.10;6.40;;;;;;;11.78;36.76;99060.78;10433969;28;20053;-71
2023/03/06 13:07:09;;;;;;;7.20;6.45;;;;;;;15.00;32.35;99058.28;10407932;28;20059;-68
2023/03/06 13:12:27;;;;;;;7.93;6.95;;;;;;;18.27;27.36;99055.28;10429711;28;20053;-71
2023/03/06 13:17:34;;;;;;;8.43;6.50;;;;;;;13.72;33.01;99049.69;10433636;28;20052;-67
2023/03/06 13:22:35;;;;;;;7.60;6.82;;;;;;;11.61;36.59;99054.53;10437257;28;20074;-67
2023/03/06 13:27:59;;;;;;;11.85;7.35;;;;;;;10.89;38.70;99048.63;10439817;28;20044;-67
2023/03/06 13:33:46;;;;;;;7.17;6.47;;;;;;;10.70;39.08;99053.13;10425513;28;21772;-67
2023/03/06 13:38:48;;;;;;;8.55;6.38;;;;;;;17.39;28.67;99031.66;10437108;28;20304;-66
2023/03/06 13:43:52;;;;;;;9.23;7.68;;;;;;;15.55;30.79;99032.91;10438053;28;20135;-66
2023/03/06 13:49:12;;;;;;;7.80;6.75;;;;;;;12.91;34.76;99030.16;10439497;28;20040;-67
2023/03/06 13:54:35;;;;;;;8.15;7.35;;;;;;;11.20;38.21;99034.84;10439609;28;20056;-66
2023/03/06 14:00:04;;;;;;;10.95;8.05;;;;;;;10.36;40.35;99016.59;10438709;28;20505;-65
2023/03/06 14:05:15;;;;;;;12.43;7.30;;;;;;;9.92;42.89;99021.75;10440070;28;20143;-66
2023/03/06 14:10:23;;;;;;;8.48;7.65;;;;;;;9.39;44.64;99020.63;10434313;28;20229;-66
2023/03/06 14:15:30;;;;;;;9.65;8.57;;;;;;;9.26;47.20;99030.75;10440261;28;20048;-65
2023/03/06 14:20:41;;;;;;;8.75;7.70;;;;;;;9.22;47.58;99021.38;10438851;28;20488;-66
2023/03/06 14:25:45;;;;;;;8.95;7.45;;;;;;;8.70;47.61;98996.09;10434890;28;20163;-65
2023/03/06 14:30:49;;;;;;;9.60;7.32;;;;;;;9.01;46.97;99006.53;10436179;28;20048;-66
2023/03/06 14:35:51;;;;;;;10.80;8.30;;;;;;;8.95;48.10;98999.97;10415413;28;20137;-67
2023/03/06 14:40:55;;;;;;;8.60;7.23;;;;;;;8.88;47.11;98995.38;10420043;28;20117;-66
2023/03/06 14:45:59;;;;;;;10.02;8.35;;;;;;;9.01;47.50;98998.56;10432435;28;20045;-67
2023/03/06 14:51:01;;;;;;;9.32;7.38;;;;;;;9.15;46.44;98974.19;10421218;28;20071;-67
2023/03/06 14:56:04;;;;;;;15.45;8.32;;;;;;;9.20;44.94;98979.91;10426260;28;20181;-67
2023/03/06 15:01:09;;;;;;;9.15;7.93;;;;;;;9.40;44.46;98994.91;10427390;28;20912;-66
2023/03/06 15:06:30;;;;;;;11.27;8.52;;;;;;;9.08;43.61;98986.34;10434377;28;20075;-67
2023/03/06 15:11:53;;;;;;;16.98;9.20;;;;;;;9.15;44.29;98990.13;10410781;28;20098;-66
2023/03/06 15:17:13;;;;;;;8.32;7.45;;;;;;;8.63;44.18;98989.69;10428451;28;20047;-68
2023/03/06 15:22:40;;;;;;;9.52;8.40;;;;;;;8.53;43.22;98984.41;10430848;28;20467;-68
2023/03/06 15:27:49;;;;;;;10.95;8.00;;;;;;;8.64;43.42;98992.19;10431985;28;20051;-67
2023/03/06 15:32:51;;;;;;;10.68;8.35;;;;;;;8.66;42.92;98989.41;10430289;28;20403;-68
2023/03/06 15:37:53;;;;;;;15.40;8.38;;;;;;;8.53;42.51;98968.50;10412372;28;20123;-67
2023/03/06 15:42:55;;;;;;;11.95;8.63;;;;;;;8.69;42.53;98996.25;10431534;28;20044;-66
2023/03/06 15:47:56;;;;;;;11.13;9.50;;;;;;;8.48;44.08;98990.13;10412435;28;20049;-67
2023/03/06 15:52:58;;;;;;;13.75;9.43;;;;;;;8.27;45.16;98990.25;10430568;28;20598;-67
2023/03/06 15:58:03;;;;;;;9.98;8.60;;;;;;;8.27;46.40;98989.41;10430654;28;20499;-67
2023/03/06 16:03:05;;;;;;;10.75;9.65;;;;;;;8.17;45.90;98985.91;10430110;28;20405;-65
2023/03/06 16:08:08;;;;;;;11.32;8.75;;;;;;;7.86;46.20;98968.31;10431217;28;20143;-69
2023/03/06 16:13:22;;;;;;;10.38;8.75;;;;;;;7.86;46.31;98975.44;10427752;28;20059;-66
2023/03/06 16:18:23;;;;;;;9.05;7.75;;;;;;;7.64;46.85;98969.41;10431553;28;20044;-66
2023/03/06 16:23:25;;;;;;;10.52;8.63;;;;;;;7.59;47.18;98990.16;10429948;28;20598;-66
2023/03/06 16:28:27;;;;;;;12.88;9.02;;;;;;;7.43;47.74;98996.81;10427101;28;20447;-65
2023/03/06 16:33:29;;;;;;;11.63;8.93;;;;;;;7.35;47.93;98977.25;10412543;28;20072;-66
2023/03/06 16:38:30;;;;;;;9.75;7.55;;;;;;;7.43;48.00;99001.25;10430487;28;20049;-66
2023/03/06 16:43:32;;;;;;;10.88;7.80;;;;;;;7.57;48.37;99003.53;10419130;28;20510;-66
2023/03/06 16:48:33;;;;;;;12.02;7.78;;;;;;;7.41;48.21;98998.72;10428375;28;20212;-67
2023/03/06 16:53:34;;;;;;;11.52;8.10;;;;;;;7.25;48.24;98998.38;10429815;28;20930;-66
2023/03/06 16:58:36;;;;;;;10.60;8.05;;;;;;;7.20;48.15;98980.25;10414316;28;20525;-67
2023/03/06 17:03:38;;;;;;;10.20;8.88;;;;;;;6.94;48.58;98982.53;10427344;28;20053;-68
2023/03/06 17:08:39;;;;;;;12.07;8.52;;;;;;;6.97;49.09;98984.09;10415774;28;20107;-68
2023/03/06 17:13:41;;;;;;;9.57;8.05;;;;;;;7.12;49.11;99013.69;10427248;28;20074;-68
2023/03/06 17:18:43;;;;;;;9.80;8.02;;;;;;;7.14;49.47;99023.13;10434193;28;20045;-69
2023/03/06 17:23:45;;;;;;;9.13;7.57;;;;;;;7.04;49.49;99007.22;10413060;28;20060;-67
2023/03/06 17:28:46;;;;;;;9.77;6.78;;;;;;;6.97;49.50;99016.66;10432834;28;20060;-68
2023/03/06 17:33:50;;;;;;;8.73;7.03;;;;;;;6.81;49.82;99016.28;10436056;28;20049;-66
2023/03/06 17:38:55;;;;;;;8.63;7.72;;;;;;;6.68;50.10;98996.16;10435732;28;20048;-68
2023/03/06 17:43:57;;;;;;;7.53;6.28;;;;;;;6.63;50.64;99030.06;10437692;28;20454;-66
2023/03/06 17:48:59;;;;;;;9.68;7.38;;;;;;;6.66;51.37;99027.16;10429225;28;20064;-66
2023/03/06 17:54:00;;;;;;;7.70;6.30;;;;;;;6.47;52.24;99040.25;10435434;28;20063;-67
2023/03/06 17:59:03;;;;;;;8.38;6.50;;;;;;;6.42;51.84;99016.84;10440007;28;20072;-69
2023/03/06 18:04:04;;;;;;;8.35;6.80;;;;;;;6.20;52.54;98994.00;10437218;28;20052;-66
2023/03/06 18:09:06;;;;;;;7.18;5.53;;;;;;;6.49;52.67;99033.88;10444625;28;20048;-67
2023/03/06 18:14:08;;;;;;;10.63;8.50;;;;;;;6.35;53.17;99026.22;10428048;28;20052;-68
2023/03/06 18:19:10;;;;;;;10.93;6.78;;;;;;;6.28;52.78;99010.06;10427182;28;20052;-66
2023/03/06 18:24:12;;;;;;;7.55;6.35;;;;;;;6.31;52.37;99007.16;10442841;28;20055;-66
2023/03/06 18:29:13;;;;;;;8.45;7.10;;;;;;;6.29;52.83;99016.16;10443268;28;20194;-66
2023/03/06 18:34:16;;;;;;;9.15;7.15;;;;;;;6.18;52.85;99004.72;10448012;28;20052;-66
2023/03/06 18:39:20;;;;;;;15.25;8.68;;;;;;;6.17;52.95;99007.44;10443865;28;20135;-67
2023/03/06 18:44:22;;;;;;;9.30;7.75;;;;;;;6.10;53.66;99008.94;10429185;28;20450;-67
2023/03/06 18:49:23;;;;;;;9.40;7.93;;;;;;;6.14;53.54;99018.25;10444103;28;20053;-66
2023/03/06 18:54:27;;;;;;;9.60;7.97;;;;;;;6.03;53.44;99005.09;10424573;28;20131;-66
2023/03/06 18:59:28;;;;;;;12.43;8.40;;;;;;;5.91;53.50;99018.31;10446277;28;21113;-65
2023/03/06 19:04:30;;;;;;;9.20;7.78;;;;;;;5.99;53.23;99015.06;10442181;28;20048;-65
2023/03/06 19:09:32;;;;;;;10.70;7.70;;;;;;;5.99;52.61;99004.50;10437203;28;20057;-68
2023/03/06 19:14:35;;;;;;;10.85;8.57;;;;;;;5.56;52.52;98981.56;10435705;28;20828;-65
2023/03/06 19:19:36;;;;;;;12.73;8.40;;;;;;;5.71;52.77;99027.00;10438907;28;20415;-67
2023/03/06 19:24:38;;;;;;;12.55;9.85;;;;;;;5.62;53.26;99026.75;10444190;28;20072;-66
2023/03/06 19:29:39;;;;;;;12.80;9.80;;;;;;;5.55;53.59;99032.66;10437145;28;20044;-66
2023/03/06 19:34:40;;;;;;;13.45;10.60;;;;;;;5.39;53.83;99027.72;10437551;28;20435;-66
2023/03/06 19:39:43;;;;;;;10.35;8.98;;;;;;;5.46;53.94;99026.31;10439675;28;20048;-65
2023/03/06 19:44:45;;;;;;;13.07;9.88;;;;;;;5.49;54.07;99020.78;10441549;28;20052;-66
2023/03/06 19:49:46;;;;;;;10.45;8.55;;;;;;;5.45;53.98;99022.84;10436934;28;20473;-65
2023/03/06 19:54:48;;;;;;;10.40;9.30;;;;;;;5.26;54.13;99012.88;10421278;28;20075;-68
2023/03/06 19:59:50;;;;;;;13.32;9.27;;;;;;;5.28;54.66;99028.59;10430857;28;20052;-64
2023/03/06 20:04:54;;;;;;;13.07;9.55;;;;;;;5.11;54.78;99011.44;10434181;28;20059;-64
2023/03/06 20:09:59;;;;;;;12.33;10.57;;;;;;;5.10;55.10;99028.22;10435819;28;20048;-65
2023/03/06 20:15:01;;;;;;;14.15;11.27;;;;;;;5.00;55.31;99001.72;10426889;28;20366;-66
2023/03/06 20:20:02;;;;;;;13.35;10.30;;;;;;;4.86;54.89;98978.22;10432465;28;20529;-65
2023/03/06 20:25:04;;;;;;;14.23;10.48;;;;;;;5.01;55.91;99007.81;10432638;28;20679;-65
2023/03/06 20:30:06;;;;;;;11.40;9.73;;;;;;;4.96;56.07;99016.09;10432921;28;20070;-67
2023/03/06 20:35:08;;;;;;;14.95;11.35;;;;;;;4.87;56.57;99007.09;10433854;28;25032;-65
2023/03/06 20:40:10;;;;;;;14.60;11.13;;;;;;;4.77;56.91;99006.09;10430426;28;20127;-65
2023/03/06 20:45:11;;;;;;;12.52;10.75;;;;;;;4.65;57.56;99002.59;10428445;28;20169;-66
2023/03/06 20:50:14;;;;;;;15.55;12.13;;;;;;;4.58;57.69;99007.53;10429205;28;20153;-68
2023/03/06 20:55:15;;;;;;;14.90;11.63;;;;;;;4.46;58.16;98997.03;10426685;28;20418;-65
2023/03/06 21:00:18;;;;;;;15.88;11.98;;;;;;;4.53;58.22;99003.53;10433410;28;20052;-65
2023/03/06 21:05:20;;;;;;;15.75;11.68;;;;;;;4.58;58.03;99004.06;10434341;28;20056;-65
2023/03/06 21:10:21;;;;;;;16.90;12.25;;;;;;;4.47;58.58;98998.75;10429000;28;20408;-66
2023/03/06 21:15:25;;;;;;;14.52;11.95;;;;;;;4.37;58.62;98993.34;10408879;28;20155;-66
2023/03/06 21:20:27;;;;;;;15.85;11.80;;;;;;;4.34;59.35;98990.91;10426024;28;20048;-66
2023/03/06 21:25:28;;;;;;;17.30;12.10;;;;;;;4.39;59.03;99001.94;10430612;28;20056;-66
2023/03/06 21:30:30;;;;;;;15.35;11.80;;;;;;;4.35;58.90;98974.16;10428768;28;20052;-66
2023/03/06 21:35:36;;;;;;;17.67;13.23;;;;;;;4.28;59.38;98968.50;10428154;28;20066;-66
2023/03/06 21:40:37;;;;;;;16.60;13.20;;;;;;;3.91;60.26;98941.44;10424230;28;20426;-65
2023/03/06 21:45:47;;;;;;;15.75;11.68;;;;;;;4.32;60.48;98977.00;10428837;28;20511;-66
2023/03/06 21:50:48;;;;;;;16.90;12.52;;;;;;;4.09;60.24;98929.53;10437109;28;20109;-70
2023/03/06 21:55:50;;;;;;;15.45;12.25;;;;;;;4.17;60.65;98945.59;10420934;28;20052;-70
2023/03/06 22:00:51;;;;;;;14.73;11.55;;;;;;;4.22;60.81;98942.63;10436848;28;20048;-71
2023/03/06 22:05:53;;;;;;;16.10;12.73;;;;;;;4.29;60.88;98949.09;10438177;28;20072;-71
2023/03/06 22:10:54;;;;;;;17.60;14.18;;;;;;;4.23;61.12;98939.03;10439396;28;20079;-69
2023/03/06 22:15:56;;;;;;;14.13;11.80;;;;;;;4.15;61.94;98930.88;10432434;28;20063;-71
2023/03/06 22:20:57;;;;;;;17.23;13.45;;;;;;;4.03;62.45;98930.81;10437742;28;20709;-69
2023/03/06 22:26:06;;;;;;;19.20;13.93;;;;;;;3.92;63.02;98920.25;10448135;28;20133;-69
2023/03/06 22:31:13;;;;;;;18.52;14.05;;;;;;;4.08;62.97;98930.47;10481601;28;20050;-72
2023/03/06 22:36:15;;;;;;;16.85;13.27;;;;;;;4.04;62.79;98919.34;10444412;28;20066;-70
2023/03/06 22:41:17;;;;;;;20.92;14.18;;;;;;;4.05;63.61;98925.44;10438867;28;20052;-71
2023/03/06 22:46:18;;;;;;;16.75;13.88;;;;;;;4.14;63.57;98929.19;10437967;28;20071;-70
2023/03/06 22:51:19;;;;;;;22.20;16.95;;;;;;;4.15;63.34;98929.06;10420622;28;20143;-69
2023/03/06 22:56:21;;;;;;;19.25;15.00;;;;;;;4.07;63.63;98919.09;10440449;28;20068;-69
2023/03/06 23:01:26;;;;;;;20.58;14.57;;;;;;;3.84;63.68;98873.44;10424817;28;20592;-70
2023/03/06 23:06:30;;;;;;;19.10;14.55;;;;;;;4.11;63.83;98917.06;10422698;28;20062;-70
2023/03/06 23:11:32;;;;;;;20.27;16.00;;;;;;;4.20;63.51;98921.69;10420796;28;20053;-66
2023/03/06 23:16:34;;;;;;;21.08;16.05;;;;;;;4.21;63.25;98907.53;10429273;28;20144;-71
2023/03/06 23:21:36;;;;;;;18.05;14.43;;;;;;;4.22;63.07;98895.22;10432543;28;20059;-70
2023/03/06 23:26:39;;;;;;;21.42;15.13;;;;;;;4.29;63.50;98901.69;10432548;28;20772;-70
2023/03/06 23:31:40;;;;;;;21.70;16.27;;;;;;;4.33;63.32;98894.41;10413800;28;20324;-69
2023/03/06 23:36:42;;;;;;;23.45;16.95;;;;;;;4.31;63.48;98891.03;10429918;28;20052;-70
2023/03/06 23:41:44;;;;;;;18.38;15.57;;;;;;;4.30;63.42;98886.72;10430213;28;20469;-68
2023/03/06 23:46:45;;;;;;;21.88;17.55;;;;;;;4.11;64.00;98860.94;10433509;28;20052;-69